sensor_id;sensor_type;location;lat;lon;timestamp;P1;durP1;ratioP1;P2;durP2;ratioP2
15645;SDS011;7922;43.622;1.476;2022-11-02T00:03:43;9.60;;;6.10;;
15645;SDS011;7922;43.622;1.476;2022-11-02T00:06:08;12.17;;;7.00;;
15645;SDS011;7922;43.622;1.476;2022-11-02T00:08:34;11.33;;;6.00;;
15645;SDS011;7922;43.622;1.476;2022-11-02T00:10:59;9.50;;;6.50;;
15645;SDS011;7922;43.622;1.476;2022-11-02T00:13:24;11.83;;;6.00;;
15645;SDS011;7922;43.622;1.476;2022-11-02T00:15:50;9.17;;;6.07;;
15645;SDS011;7922;43.622;1.476;2022-11-02T00:18:15;10.23;;;6.43;;
15645;SDS011;7922;43.622;1.476;2022-11-02T00:20:41;9.33;;;5.83;;
15645;SDS011;7922;43.622;1.476;2022-11-02T00:23:07;12.60;;;6.70;;
15645;SDS011;7922;43.622;1.476;2022-11-02T00:25:36;11.73;;;6.40;;
15645;SDS011;7922;43.622;1.476;2022-11-02T00:28:06;8.47;;;6.10;;
15645;SDS011;7922;43.622;1.476;2022-11-02T00:30:31;10.77;;;6.40;;
15645;SDS011;7922;43.622;1.476;2022-11-02T00:32:57;11.90;;;6.50;;
15645;SDS011;7922;43.622;1.476;2022-11-02T00:35:22;10.20;;;7.07;;
15645;SDS011;7922;43.622;1.476;2022-11-02T00:37:47;13.57;;;7.80;;
15645;SDS011;7922;43.622;1.476;2022-11-02T00:40:13;10.97;;;7.43;;
15645;SDS011;7922;43.622;1.476;2022-11-02T00:42:38;9.07;;;6.50;;
15645;SDS011;7922;43.622;1.476;2022-11-02T00:45:04;10.93;;;6.97;;
15645;SDS011;7922;43.622;1.476;2022-11-02T00:47:30;9.50;;;6.53;;
15645;SDS011;7922;43.622;1.476;2022-11-02T00:49:55;7.97;;;5.70;;
15645;SDS011;7922;43.622;1.476;2022-11-02T00:52:21;9.73;;;6.40;;
15645;SDS011;7922;43.622;1.476;2022-11-02T00:54:46;10.63;;;6.73;;
15645;SDS011;7922;43.622;1.476;2022-11-02T00:57:12;8.23;;;6.50;;
15645;SDS011;7922;43.622;1.476;2022-11-02T00:59:37;11.83;;;6.80;;
15645;SDS011;7922;43.622;1.476;2022-11-02T01:02:02;8.07;;;6.40;;
15645;SDS011;7922;43.622;1.476;2022-11-02T01:04:28;10.70;;;6.17;;
15645;SDS011;7922;43.622;1.476;2022-11-02T01:06:53;11.83;;;6.50;;
15645;SDS011;7922;43.622;1.476;2022-11-02T01:09:19;10.40;;;6.07;;
15645;SDS011;7922;43.622;1.476;2022-11-02T01:11:45;8.83;;;5.30;;
15645;SDS011;7922;43.622;1.476;2022-11-02T01:14:11;8.80;;;5.40;;
15645;SDS011;7922;43.622;1.476;2022-11-02T01:16:37;8.77;;;4.23;;
15645;SDS011;7922;43.622;1.476;2022-11-02T01:19:04;7.07;;;3.87;;
15645;SDS011;7922;43.622;1.476;2022-11-02T01:21:29;7.77;;;3.63;;
15645;SDS011;7922;43.622;1.476;2022-11-02T01:23:54;7.33;;;3.57;;
15645;SDS011;7922;43.622;1.476;2022-11-02T01:26:20;8.00;;;3.57;;
15645;SDS011;7922;43.622;1.476;2022-11-02T01:28:45;7.43;;;4.07;;
15645;SDS011;7922;43.622;1.476;2022-11-02T01:31:11;10.57;;;4.00;;
15645;SDS011;7922;43.622;1.476;2022-11-02T01:33:36;10.23;;;3.70;;
15645;SDS011;7922;43.622;1.476;2022-11-02T01:36:03;8.80;;;3.70;;
15645;SDS011;7922;43.622;1.476;2022-11-02T01:38:30;7.77;;;3.67;;
15645;SDS011;7922;43.622;1.476;2022-11-02T01:40:56;11.57;;;4.10;;
15645;SDS011;7922;43.622;1.476;2022-11-02T01:45:54;6.60;;;3.33;;
15645;SDS011;7922;43.622;1.476;2022-11-02T01:48:27;7.77;;;2.90;;
15645;SDS011;7922;43.622;1.476;2022-11-02T01:50:58;8.03;;;3.73;;
15645;SDS011;7922;43.622;1.476;2022-11-02T01:53:26;7.90;;;3.50;;
15645;SDS011;7922;43.622;1.476;2022-11-02T01:55:52;5.63;;;2.77;;
15645;SDS011;7922;43.622;1.476;2022-11-02T01:58:18;9.20;;;3.60;;
15645;SDS011;7922;43.622;1.476;2022-11-02T02:00:43;7.23;;;3.77;;
15645;SDS011;7922;43.622;1.476;2022-11-02T02:03:13;6.23;;;3.00;;
15645;SDS011;7922;43.622;1.476;2022-11-02T02:05:48;6.67;;;2.87;;
15645;SDS011;7922;43.622;1.476;2022-11-02T02:08:18;9.70;;;3.37;;
15645;SDS011;7922;43.622;1.476;2022-11-02T02:10:44;10.00;;;3.13;;
15645;SDS011;7922;43.622;1.476;2022-11-02T02:13:10;4.73;;;2.57;;
15645;SDS011;7922;43.622;1.476;2022-11-02T02:15:47;6.93;;;3.27;;
15645;SDS011;7922;43.622;1.476;2022-11-02T02:29:23;6.40;;;3.13;;
15645;SDS011;7922;43.622;1.476;2022-11-02T02:32:05;9.90;;;2.80;;
15645;SDS011;7922;43.622;1.476;2022-11-02T02:34:37;8.77;;;3.03;;
15645;SDS011;7922;43.622;1.476;2022-11-02T02:37:11;6.73;;;2.80;;
15645;SDS011;7922;43.622;1.476;2022-11-02T02:39:53;6.27;;;2.90;;
15645;SDS011;7922;43.622;1.476;2022-11-02T02:42:24;10.07;;;2.93;;
15645;SDS011;7922;43.622;1.476;2022-11-02T02:44:59;7.70;;;3.03;;
15645;SDS011;7922;43.622;1.476;2022-11-02T02:47:34;8.10;;;3.07;;
15645;SDS011;7922;43.622;1.476;2022-11-02T02:50:25;8.10;;;2.93;;
15645;SDS011;7922;43.622;1.476;2022-11-02T02:52:50;8.80;;;2.60;;
15645;SDS011;7922;43.622;1.476;2022-11-02T02:55:21;9.27;;;3.43;;
15645;SDS011;7922;43.622;1.476;2022-11-02T02:57:50;7.93;;;3.00;;
15645;SDS011;7922;43.622;1.476;2022-11-02T03:00:17;7.47;;;3.17;;
15645;SDS011;7922;43.622;1.476;2022-11-02T03:02:43;8.13;;;2.80;;
15645;SDS011;7922;43.622;1.476;2022-11-02T03:05:25;8.03;;;2.83;;
15645;SDS011;7922;43.622;1.476;2022-11-02T03:07:53;9.57;;;3.03;;
15645;SDS011;7922;43.622;1.476;2022-11-02T03:10:20;12.50;;;3.20;;
15645;SDS011;7922;43.622;1.476;2022-11-02T03:15:15;7.30;;;3.03;;
15645;SDS011;7922;43.622;1.476;2022-11-02T03:23:28;6.20;;;2.80;;
15645;SDS011;7922;43.622;1.476;2022-11-02T03:26:08;10.10;;;3.07;;
15645;SDS011;7922;43.622;1.476;2022-11-02T03:28:49;11.73;;;3.20;;
15645;SDS011;7922;43.622;1.476;2022-11-02T03:31:35;5.93;;;2.70;;
15645;SDS011;7922;43.622;1.476;2022-11-02T03:36:32;6.23;;;2.40;;
15645;SDS011;7922;43.622;1.476;2022-11-02T03:39:03;9.97;;;3.30;;
15645;SDS011;7922;43.622;1.476;2022-11-02T03:41:31;9.13;;;3.13;;
15645;SDS011;7922;43.622;1.476;2022-11-02T03:43:58;10.57;;;2.60;;
15645;SDS011;7922;43.622;1.476;2022-11-02T03:46:28;10.63;;;2.90;;
15645;SDS011;7922;43.622;1.476;2022-11-02T03:48:56;10.70;;;3.20;;
15645;SDS011;7922;43.622;1.476;2022-11-02T03:51:21;6.20;;;2.93;;
15645;SDS011;7922;43.622;1.476;2022-11-02T03:56:34;6.43;;;2.93;;
15645;SDS011;7922;43.622;1.476;2022-11-02T03:59:17;10.53;;;3.20;;
15645;SDS011;7922;43.622;1.476;2022-11-02T04:01:43;9.83;;;2.73;;
15645;SDS011;7922;43.622;1.476;2022-11-02T04:04:10;8.50;;;2.60;;
15645;SDS011;7922;43.622;1.476;2022-11-02T04:06:36;8.03;;;2.77;;
15645;SDS011;7922;43.622;1.476;2022-11-02T04:09:02;9.53;;;3.20;;
15645;SDS011;7922;43.622;1.476;2022-11-02T04:11:28;10.37;;;3.10;;
15645;SDS011;7922;43.622;1.476;2022-11-02T04:14:13;8.87;;;2.83;;
15645;SDS011;7922;43.622;1.476;2022-11-02T04:16:57;8.17;;;3.00;;
15645;SDS011;7922;43.622;1.476;2022-11-02T04:19:41;7.67;;;2.60;;
15645;SDS011;7922;43.622;1.476;2022-11-02T04:22:06;11.23;;;2.87;;
15645;SDS011;7922;43.622;1.476;2022-11-02T04:24:50;6.80;;;2.70;;
15645;SDS011;7922;43.622;1.476;2022-11-02T04:27:34;9.17;;;2.97;;
15645;SDS011;7922;43.622;1.476;2022-11-02T04:30:00;7.77;;;2.93;;
15645;SDS011;7922;43.622;1.476;2022-11-02T04:32:25;7.77;;;3.10;;
15645;SDS011;7922;43.622;1.476;2022-11-02T04:35:09;8.90;;;2.80;;
15645;SDS011;7922;43.622;1.476;2022-11-02T04:37:37;11.37;;;3.10;;
15645;SDS011;7922;43.622;1.476;2022-11-02T04:40:24;10.47;;;3.30;;
15645;SDS011;7922;43.622;1.476;2022-11-02T04:42:49;6.97;;;2.70;;
15645;SDS011;7922;43.622;1.476;2022-11-02T04:45:15;9.37;;;2.87;;
15645;SDS011;7922;43.622;1.476;2022-11-02T04:47:40;10.90;;;3.00;;
15645;SDS011;7922;43.622;1.476;2022-11-02T04:50:06;8.83;;;2.90;;
15645;SDS011;7922;43.622;1.476;2022-11-02T04:52:32;10.87;;;3.03;;
15645;SDS011;7922;43.622;1.476;2022-11-02T04:54:57;9.97;;;3.10;;
15645;SDS011;7922;43.622;1.476;2022-11-02T04:57:22;6.50;;;2.53;;
15645;SDS011;7922;43.622;1.476;2022-11-02T04:59:48;12.93;;;3.00;;
15645;SDS011;7922;43.622;1.476;2022-11-02T05:02:13;8.17;;;2.90;;
15645;SDS011;7922;43.622;1.476;2022-11-02T05:04:38;9.53;;;3.07;;
15645;SDS011;7922;43.622;1.476;2022-11-02T05:07:04;8.10;;;3.30;;
15645;SDS011;7922;43.622;1.476;2022-11-02T05:09:31;7.47;;;3.10;;
15645;SDS011;7922;43.622;1.476;2022-11-02T05:11:57;8.53;;;2.67;;
15645;SDS011;7922;43.622;1.476;2022-11-02T05:14:22;8.33;;;3.03;;
15645;SDS011;7922;43.622;1.476;2022-11-02T05:16:48;10.77;;;2.90;;
15645;SDS011;7922;43.622;1.476;2022-11-02T05:19:13;8.20;;;2.80;;
15645;SDS011;7922;43.622;1.476;2022-11-02T05:21:39;8.73;;;2.87;;
15645;SDS011;7922;43.622;1.476;2022-11-02T05:24:04;8.23;;;2.87;;
15645;SDS011;7922;43.622;1.476;2022-11-02T05:26:30;7.63;;;2.30;;
15645;SDS011;7922;43.622;1.476;2022-11-02T05:28:55;6.83;;;2.27;;
15645;SDS011;7922;43.622;1.476;2022-11-02T05:31:21;5.30;;;2.53;;
15645;SDS011;7922;43.622;1.476;2022-11-02T05:33:46;10.43;;;2.90;;
15645;SDS011;7922;43.622;1.476;2022-11-02T05:36:12;11.17;;;3.20;;
15645;SDS011;7922;43.622;1.476;2022-11-02T05:38:37;8.70;;;2.77;;
15645;SDS011;7922;43.622;1.476;2022-11-02T05:41:02;10.90;;;2.83;;
15645;SDS011;7922;43.622;1.476;2022-11-02T05:43:28;7.73;;;2.73;;
15645;SDS011;7922;43.622;1.476;2022-11-02T05:45:54;8.80;;;2.67;;
15645;SDS011;7922;43.622;1.476;2022-11-02T05:48:21;11.70;;;3.10;;
15645;SDS011;7922;43.622;1.476;2022-11-02T05:50:47;9.97;;;2.53;;
15645;SDS011;7922;43.622;1.476;2022-11-02T05:53:12;7.67;;;2.93;;
15645;SDS011;7922;43.622;1.476;2022-11-02T05:55:37;9.60;;;3.03;;
15645;SDS011;7922;43.622;1.476;2022-11-02T05:58:03;9.50;;;3.00;;
15645;SDS011;7922;43.622;1.476;2022-11-02T06:00:28;9.47;;;2.60;;
15645;SDS011;7922;43.622;1.476;2022-11-02T06:02:54;8.27;;;2.50;;
15645;SDS011;7922;43.622;1.476;2022-11-02T06:05:21;13.87;;;3.40;;
15645;SDS011;7922;43.622;1.476;2022-11-02T06:07:47;10.70;;;3.10;;
15645;SDS011;7922;43.622;1.476;2022-11-02T06:10:12;8.63;;;3.10;;
15645;SDS011;7922;43.622;1.476;2022-11-02T06:12:38;6.93;;;2.63;;
15645;SDS011;7922;43.622;1.476;2022-11-02T06:15:03;8.67;;;3.10;;
15645;SDS011;7922;43.622;1.476;2022-11-02T06:17:35;8.37;;;3.57;;
15645;SDS011;7922;43.622;1.476;2022-11-02T06:20:01;12.70;;;3.90;;
15645;SDS011;7922;43.622;1.476;2022-11-02T06:22:27;9.10;;;3.27;;
15645;SDS011;7922;43.622;1.476;2022-11-02T06:24:52;11.73;;;3.00;;
15645;SDS011;7922;43.622;1.476;2022-11-02T06:27:18;12.20;;;3.30;;
15645;SDS011;7922;43.622;1.476;2022-11-02T06:29:44;8.87;;;3.07;;
15645;SDS011;7922;43.622;1.476;2022-11-02T06:32:09;11.97;;;3.13;;
15645;SDS011;7922;43.622;1.476;2022-11-02T06:34:34;10.40;;;3.20;;
15645;SDS011;7922;43.622;1.476;2022-11-02T06:37:00;9.37;;;3.33;;
15645;SDS011;7922;43.622;1.476;2022-11-02T06:39:25;12.43;;;4.00;;
15645;SDS011;7922;43.622;1.476;2022-11-02T06:41:50;10.57;;;3.37;;
15645;SDS011;7922;43.622;1.476;2022-11-02T06:44:16;13.63;;;3.90;;
15645;SDS011;7922;43.622;1.476;2022-11-02T06:46:41;12.17;;;3.80;;
15645;SDS011;7922;43.622;1.476;2022-11-02T06:49:07;9.50;;;3.40;;
15645;SDS011;7922;43.622;1.476;2022-11-02T06:51:32;8.43;;;3.33;;
15645;SDS011;7922;43.622;1.476;2022-11-02T06:53:57;10.70;;;3.40;;
15645;SDS011;7922;43.622;1.476;2022-11-02T06:56:23;8.97;;;3.10;;
15645;SDS011;7922;43.622;1.476;2022-11-02T06:58:48;9.30;;;3.17;;
15645;SDS011;7922;43.622;1.476;2022-11-02T07:01:14;8.40;;;2.80;;
15645;SDS011;7922;43.622;1.476;2022-11-02T07:03:39;7.53;;;3.23;;
15645;SDS011;7922;43.622;1.476;2022-11-02T07:06:05;9.90;;;3.13;;
15645;SDS011;7922;43.622;1.476;2022-11-02T07:08:30;4.77;;;2.50;;
15645;SDS011;7922;43.622;1.476;2022-11-02T07:10:56;8.87;;;3.17;;
15645;SDS011;7922;43.622;1.476;2022-11-02T07:13:22;10.00;;;3.40;;
15645;SDS011;7922;43.622;1.476;2022-11-02T07:15:49;8.67;;;2.90;;
15645;SDS011;7922;43.622;1.476;2022-11-02T07:18:16;9.70;;;3.10;;
15645;SDS011;7922;43.622;1.476;2022-11-02T07:20:41;9.03;;;2.90;;
15645;SDS011;7922;43.622;1.476;2022-11-02T07:23:08;13.03;;;3.60;;
15645;SDS011;7922;43.622;1.476;2022-11-02T07:25:33;8.63;;;3.10;;
15645;SDS011;7922;43.622;1.476;2022-11-02T07:28:00;9.73;;;3.03;;
15645;SDS011;7922;43.622;1.476;2022-11-02T07:30:26;9.30;;;3.17;;
15645;SDS011;7922;43.622;1.476;2022-11-02T07:32:52;11.10;;;3.53;;
15645;SDS011;7922;43.622;1.476;2022-11-02T07:35:17;8.33;;;3.17;;
15645;SDS011;7922;43.622;1.476;2022-11-02T07:37:43;12.00;;;3.07;;
15645;SDS011;7922;43.622;1.476;2022-11-02T07:40:09;8.67;;;2.80;;
15645;SDS011;7922;43.622;1.476;2022-11-02T07:42:41;7.97;;;3.27;;
15645;SDS011;7922;43.622;1.476;2022-11-02T07:45:07;10.23;;;2.90;;
15645;SDS011;7922;43.622;1.476;2022-11-02T07:47:33;15.37;;;4.17;;
15645;SDS011;7922;43.622;1.476;2022-11-02T07:50:05;10.93;;;3.43;;
15645;SDS011;7922;43.622;1.476;2022-11-02T07:52:31;12.30;;;3.57;;
15645;SDS011;7922;43.622;1.476;2022-11-02T07:54:56;5.87;;;2.80;;
15645;SDS011;7922;43.622;1.476;2022-11-02T07:57:22;6.73;;;3.10;;
15645;SDS011;7922;43.622;1.476;2022-11-02T07:59:47;11.73;;;3.10;;
15645;SDS011;7922;43.622;1.476;2022-11-02T08:02:12;11.17;;;3.00;;
15645;SDS011;7922;43.622;1.476;2022-11-02T08:04:38;10.80;;;3.20;;
15645;SDS011;7922;43.622;1.476;2022-11-02T08:07:03;13.63;;;2.80;;
15645;SDS011;7922;43.622;1.476;2022-11-02T08:09:29;10.80;;;3.03;;
15645;SDS011;7922;43.622;1.476;2022-11-02T08:11:55;13.37;;;3.33;;
15645;SDS011;7922;43.622;1.476;2022-11-02T08:14:21;10.93;;;3.37;;
15645;SDS011;7922;43.622;1.476;2022-11-02T08:16:46;11.13;;;3.23;;
15645;SDS011;7922;43.622;1.476;2022-11-02T08:19:15;10.27;;;3.53;;
15645;SDS011;7922;43.622;1.476;2022-11-02T08:21:41;10.60;;;3.57;;
15645;SDS011;7922;43.622;1.476;2022-11-02T08:24:06;7.97;;;3.10;;
15645;SDS011;7922;43.622;1.476;2022-11-02T08:26:32;12.63;;;3.20;;
15645;SDS011;7922;43.622;1.476;2022-11-02T08:28:57;8.43;;;3.00;;
15645;SDS011;7922;43.622;1.476;2022-11-02T08:31:23;7.97;;;2.97;;
15645;SDS011;7922;43.622;1.476;2022-11-02T08:33:48;8.57;;;3.10;;
15645;SDS011;7922;43.622;1.476;2022-11-02T08:36:14;11.87;;;3.43;;
15645;SDS011;7922;43.622;1.476;2022-11-02T08:38:39;10.40;;;3.17;;
15645;SDS011;7922;43.622;1.476;2022-11-02T08:41:05;11.13;;;3.13;;
15645;SDS011;7922;43.622;1.476;2022-11-02T08:43:30;14.00;;;3.70;;
15645;SDS011;7922;43.622;1.476;2022-11-02T08:45:56;16.23;;;3.63;;
15645;SDS011;7922;43.622;1.476;2022-11-02T08:48:23;9.73;;;3.20;;
15645;SDS011;7922;43.622;1.476;2022-11-02T08:50:48;8.83;;;3.23;;
15645;SDS011;7922;43.622;1.476;2022-11-02T08:53:14;15.20;;;3.80;;
15645;SDS011;7922;43.622;1.476;2022-11-02T08:55:40;7.57;;;3.50;;
15645;SDS011;7922;43.622;1.476;2022-11-02T08:58:05;9.50;;;3.67;;
15645;SDS011;7922;43.622;1.476;2022-11-02T09:00:31;13.13;;;3.97;;
15645;SDS011;7922;43.622;1.476;2022-11-02T09:05:23;9.83;;;3.43;;
15645;SDS011;7922;43.622;1.476;2022-11-02T09:07:53;11.07;;;3.53;;
15645;SDS011;7922;43.622;1.476;2022-11-02T09:10:19;13.60;;;4.50;;
15645;SDS011;7922;43.622;1.476;2022-11-02T09:12:44;14.07;;;3.63;;
15645;SDS011;7922;43.622;1.476;2022-11-02T09:15:09;9.70;;;3.47;;
15645;SDS011;7922;43.622;1.476;2022-11-02T09:17:35;10.13;;;3.90;;
15645;SDS011;7922;43.622;1.476;2022-11-02T09:20:00;11.07;;;3.27;;
15645;SDS011;7922;43.622;1.476;2022-11-02T09:22:26;13.47;;;3.93;;
15645;SDS011;7922;43.622;1.476;2022-11-02T09:24:51;10.53;;;3.50;;
15645;SDS011;7922;43.622;1.476;2022-11-02T09:27:16;10.97;;;3.87;;
15645;SDS011;7922;43.622;1.476;2022-11-02T09:29:42;6.60;;;2.93;;
15645;SDS011;7922;43.622;1.476;2022-11-02T09:32:07;10.17;;;3.50;;
15645;SDS011;7922;43.622;1.476;2022-11-02T09:34:32;10.83;;;3.70;;
15645;SDS011;7922;43.622;1.476;2022-11-02T09:36:58;11.00;;;3.47;;
15645;SDS011;7922;43.622;1.476;2022-11-02T09:39:23;8.80;;;3.43;;
15645;SDS011;7922;43.622;1.476;2022-11-02T09:47:28;8.57;;;3.10;;
15645;SDS011;7922;43.622;1.476;2022-11-02T09:49:55;12.00;;;3.43;;
15645;SDS011;7922;43.622;1.476;2022-11-02T09:52:35;9.23;;;2.90;;
15645;SDS011;7922;43.622;1.476;2022-11-02T09:55:02;9.13;;;3.13;;
15645;SDS011;7922;43.622;1.476;2022-11-02T09:57:30;6.90;;;2.17;;
15645;SDS011;7922;43.622;1.476;2022-11-02T09:59:57;9.80;;;2.50;;
15645;SDS011;7922;43.622;1.476;2022-11-02T10:05:07;9.20;;;3.20;;
15645;SDS011;7922;43.622;1.476;2022-11-02T10:10:32;7.27;;;2.37;;
15645;SDS011;7922;43.622;1.476;2022-11-02T10:13:14;7.50;;;2.20;;
15645;SDS011;7922;43.622;1.476;2022-11-02T10:18:17;8.43;;;2.80;;
15645;SDS011;7922;43.622;1.476;2022-11-02T10:20:45;5.33;;;2.30;;
15645;SDS011;7922;43.622;1.476;2022-11-02T10:23:18;8.03;;;2.50;;
15645;SDS011;7922;43.622;1.476;2022-11-02T10:25:49;9.87;;;2.10;;
15645;SDS011;7922;43.622;1.476;2022-11-02T10:28:17;5.80;;;1.87;;
15645;SDS011;7922;43.622;1.476;2022-11-02T10:30:44;8.17;;;2.10;;
15645;SDS011;7922;43.622;1.476;2022-11-02T10:33:15;5.27;;;1.87;;
15645;SDS011;7922;43.622;1.476;2022-11-02T10:35:45;5.27;;;1.80;;
15645;SDS011;7922;43.622;1.476;2022-11-02T10:46:41;4.13;;;1.50;;
15645;SDS011;7922;43.622;1.476;2022-11-02T10:52:38;5.73;;;1.90;;
15645;SDS011;7922;43.622;1.476;2022-11-02T10:55:08;6.50;;;1.57;;
15645;SDS011;7922;43.622;1.476;2022-11-02T10:57:38;4.87;;;1.80;;
15645;SDS011;7922;43.622;1.476;2022-11-02T11:03:00;3.40;;;1.70;;
15645;SDS011;7922;43.622;1.476;2022-11-02T11:11:35;4.67;;;1.80;;
15645;SDS011;7922;43.622;1.476;2022-11-02T11:14:04;5.30;;;1.70;;
15645;SDS011;7922;43.622;1.476;2022-11-02T11:19:28;4.07;;;1.67;;
15645;SDS011;7922;43.622;1.476;2022-11-02T11:21:56;4.37;;;1.80;;
15645;SDS011;7922;43.622;1.476;2022-11-02T11:24:31;4.83;;;1.80;;
15645;SDS011;7922;43.622;1.476;2022-11-02T11:29:26;5.20;;;1.93;;
15645;SDS011;7922;43.622;1.476;2022-11-02T11:31:54;6.07;;;2.30;;
15645;SDS011;7922;43.622;1.476;2022-11-02T11:34:24;3.73;;;1.90;;
15645;SDS011;7922;43.622;1.476;2022-11-02T11:36:51;7.67;;;2.20;;
15645;SDS011;7922;43.622;1.476;2022-11-02T11:39:25;4.03;;;2.10;;
15645;SDS011;7922;43.622;1.476;2022-11-02T11:41:51;5.23;;;2.53;;
15645;SDS011;7922;43.622;1.476;2022-11-02T11:44:17;6.93;;;2.13;;
15645;SDS011;7922;43.622;1.476;2022-11-02T11:46:46;4.87;;;1.70;;
15645;SDS011;7922;43.622;1.476;2022-11-02T11:49:20;5.97;;;2.17;;
15645;SDS011;7922;43.622;1.476;2022-11-02T11:51:50;4.13;;;1.90;;
15645;SDS011;7922;43.622;1.476;2022-11-02T11:54:29;4.70;;;1.70;;
15645;SDS011;7922;43.622;1.476;2022-11-02T11:56:56;3.97;;;2.30;;
15645;SDS011;7922;43.622;1.476;2022-11-02T11:59:46;4.57;;;1.77;;
15645;SDS011;7922;43.622;1.476;2022-11-02T12:02:22;3.33;;;1.70;;
15645;SDS011;7922;43.622;1.476;2022-11-02T12:05:10;4.20;;;1.67;;
15645;SDS011;7922;43.622;1.476;2022-11-02T12:10:39;4.77;;;2.10;;
15645;SDS011;7922;43.622;1.476;2022-11-02T12:13:19;5.30;;;2.10;;
15645;SDS011;7922;43.622;1.476;2022-11-02T12:32:19;7.77;;;2.10;;
15645;SDS011;7922;43.622;1.476;2022-11-02T12:40:29;5.00;;;1.70;;
15645;SDS011;7922;43.622;1.476;2022-11-02T12:45:45;4.90;;;1.83;;
15645;SDS011;7922;43.622;1.476;2022-11-02T12:51:23;4.50;;;1.93;;
15645;SDS011;7922;43.622;1.476;2022-11-02T12:56:45;2.47;;;1.60;;
15645;SDS011;7922;43.622;1.476;2022-11-02T12:59:21;2.10;;;1.20;;
15645;SDS011;7922;43.622;1.476;2022-11-02T13:01:47;3.23;;;1.47;;
15645;SDS011;7922;43.622;1.476;2022-11-02T13:04:26;3.43;;;1.73;;
15645;SDS011;7922;43.622;1.476;2022-11-02T13:06:58;3.20;;;1.40;;
15645;SDS011;7922;43.622;1.476;2022-11-02T13:09:34;5.43;;;2.00;;
15645;SDS011;7922;43.622;1.476;2022-11-02T13:12:03;3.43;;;1.60;;
15645;SDS011;7922;43.622;1.476;2022-11-02T13:14:35;3.70;;;1.60;;
15645;SDS011;7922;43.622;1.476;2022-11-02T13:17:14;10.17;;;1.87;;
15645;SDS011;7922;43.622;1.476;2022-11-02T13:19:54;4.17;;;1.70;;
15645;SDS011;7922;43.622;1.476;2022-11-02T13:22:24;4.97;;;1.80;;
15645;SDS011;7922;43.622;1.476;2022-11-02T13:24:54;4.90;;;2.00;;
15645;SDS011;7922;43.622;1.476;2022-11-02T13:29:51;3.13;;;1.70;;
15645;SDS011;7922;43.622;1.476;2022-11-02T13:34:47;2.33;;;1.60;;
15645;SDS011;7922;43.622;1.476;2022-11-02T13:37:25;3.30;;;1.60;;
15645;SDS011;7922;43.622;1.476;2022-11-02T13:39:56;3.53;;;1.87;;
15645;SDS011;7922;43.622;1.476;2022-11-02T13:50:15;2.70;;;1.30;;
15645;SDS011;7922;43.622;1.476;2022-11-02T13:52:58;2.30;;;1.00;;
15645;SDS011;7922;43.622;1.476;2022-11-02T13:58:24;3.93;;;1.20;;
15645;SDS011;7922;43.622;1.476;2022-11-02T14:00:51;2.77;;;1.50;;
15645;SDS011;7922;43.622;1.476;2022-11-02T14:03:22;1.60;;;0.93;;
15645;SDS011;7922;43.622;1.476;2022-11-02T14:05:57;2.53;;;1.13;;
15645;SDS011;7922;43.622;1.476;2022-11-02T14:08:33;2.70;;;1.30;;
15645;SDS011;7922;43.622;1.476;2022-11-02T14:21:45;4.10;;;1.60;;
15645;SDS011;7922;43.622;1.476;2022-11-02T14:27:03;4.10;;;1.20;;
15645;SDS011;7922;43.622;1.476;2022-11-02T14:29:49;3.07;;;1.43;;
15645;SDS011;7922;43.622;1.476;2022-11-02T14:38:03;1.40;;;1.07;;
15645;SDS011;7922;43.622;1.476;2022-11-02T14:45:47;1.50;;;1.23;;
15645;SDS011;7922;43.622;1.476;2022-11-02T14:48:28;4.60;;;1.50;;
15645;SDS011;7922;43.622;1.476;2022-11-02T14:51:05;2.50;;;1.30;;
15645;SDS011;7922;43.622;1.476;2022-11-02T14:53:38;3.83;;;1.40;;
15645;SDS011;7922;43.622;1.476;2022-11-02T14:56:04;2.67;;;1.20;;
15645;SDS011;7922;43.622;1.476;2022-11-02T14:58:37;2.47;;;1.30;;
15645;SDS011;7922;43.622;1.476;2022-11-02T15:01:03;5.93;;;2.03;;
15645;SDS011;7922;43.622;1.476;2022-11-02T15:03:34;3.83;;;1.40;;
15645;SDS011;7922;43.622;1.476;2022-11-02T15:08:49;3.93;;;1.43;;
15645;SDS011;7922;43.622;1.476;2022-11-02T15:27:33;3.30;;;1.57;;
15645;SDS011;7922;43.622;1.476;2022-11-02T15:30:00;3.63;;;1.50;;
15645;SDS011;7922;43.622;1.476;2022-11-02T15:32:26;3.70;;;1.60;;
15645;SDS011;7922;43.622;1.476;2022-11-02T15:34:53;3.03;;;1.30;;
15645;SDS011;7922;43.622;1.476;2022-11-02T15:37:29;2.00;;;1.60;;
15645;SDS011;7922;43.622;1.476;2022-11-02T15:39:57;5.23;;;1.90;;
15645;SDS011;7922;43.622;1.476;2022-11-02T15:42:37;2.30;;;1.53;;
15645;SDS011;7922;43.622;1.476;2022-11-02T16:01:31;4.17;;;1.50;;
15645;SDS011;7922;43.622;1.476;2022-11-02T16:04:00;3.10;;;1.67;;
15645;SDS011;7922;43.622;1.476;2022-11-02T16:06:38;2.80;;;1.67;;
15645;SDS011;7922;43.622;1.476;2022-11-02T16:12:20;3.33;;;1.73;;
15645;SDS011;7922;43.622;1.476;2022-11-02T16:17:36;3.40;;;1.97;;
15645;SDS011;7922;43.622;1.476;2022-11-02T16:22:35;4.53;;;3.47;;
15645;SDS011;7922;43.622;1.476;2022-11-02T16:25:05;6.50;;;2.83;;
15645;SDS011;7922;43.622;1.476;2022-11-02T16:27:35;5.63;;;2.90;;
15645;SDS011;7922;43.622;1.476;2022-11-02T16:30:02;5.73;;;2.30;;
15645;SDS011;7922;43.622;1.476;2022-11-02T16:32:28;5.17;;;2.67;;
15645;SDS011;7922;43.622;1.476;2022-11-02T16:34:54;4.80;;;2.20;;
15645;SDS011;7922;43.622;1.476;2022-11-02T16:37:22;5.60;;;2.20;;
15645;SDS011;7922;43.622;1.476;2022-11-02T16:39:48;4.30;;;2.20;;
15645;SDS011;7922;43.622;1.476;2022-11-02T16:42:16;3.47;;;2.53;;
15645;SDS011;7922;43.622;1.476;2022-11-02T16:44:44;5.23;;;2.47;;
15645;SDS011;7922;43.622;1.476;2022-11-02T16:47:20;6.40;;;2.60;;
15645;SDS011;7922;43.622;1.476;2022-11-02T16:52:20;5.33;;;2.37;;
15645;SDS011;7922;43.622;1.476;2022-11-02T16:54:47;6.13;;;2.70;;
15645;SDS011;7922;43.622;1.476;2022-11-02T16:57:14;6.13;;;2.63;;
15645;SDS011;7922;43.622;1.476;2022-11-02T16:59:53;4.57;;;2.50;;
15645;SDS011;7922;43.622;1.476;2022-11-02T17:05:00;6.70;;;2.60;;
15645;SDS011;7922;43.622;1.476;2022-11-02T17:07:30;4.67;;;2.40;;
15645;SDS011;7922;43.622;1.476;2022-11-02T17:09:58;3.60;;;2.20;;
15645;SDS011;7922;43.622;1.476;2022-11-02T17:14:55;5.87;;;2.57;;
15645;SDS011;7922;43.622;1.476;2022-11-02T17:17:26;3.57;;;2.30;;
15645;SDS011;7922;43.622;1.476;2022-11-02T17:25:24;4.63;;;2.63;;
15645;SDS011;7922;43.622;1.476;2022-11-02T17:27:51;5.13;;;3.30;;
15645;SDS011;7922;43.622;1.476;2022-11-02T17:32:58;6.50;;;3.40;;
15645;SDS011;7922;43.622;1.476;2022-11-02T17:35:32;4.43;;;2.73;;
15645;SDS011;7922;43.622;1.476;2022-11-02T17:37:57;5.07;;;2.87;;
15645;SDS011;7922;43.622;1.476;2022-11-02T17:40:23;4.00;;;2.93;;
15645;SDS011;7922;43.622;1.476;2022-11-02T17:42:48;4.53;;;3.47;;
15645;SDS011;7922;43.622;1.476;2022-11-02T17:45:30;6.27;;;3.30;;
15645;SDS011;7922;43.622;1.476;2022-11-02T17:48:01;5.40;;;3.73;;
15645;SDS011;7922;43.622;1.476;2022-11-02T17:50:28;10.73;;;3.10;;
15645;SDS011;7922;43.622;1.476;2022-11-02T17:52:55;15.23;;;3.80;;
15645;SDS011;7922;43.622;1.476;2022-11-02T17:55:22;6.53;;;3.83;;
15645;SDS011;7922;43.622;1.476;2022-11-02T17:57:48;7.60;;;4.00;;
15645;SDS011;7922;43.622;1.476;2022-11-02T18:00:14;6.00;;;2.97;;
15645;SDS011;7922;43.622;1.476;2022-11-02T18:02:47;5.87;;;3.70;;
15645;SDS011;7922;43.622;1.476;2022-11-02T18:05:24;5.50;;;3.67;;
15645;SDS011;7922;43.622;1.476;2022-11-02T18:07:51;5.50;;;3.30;;
15645;SDS011;7922;43.622;1.476;2022-11-02T18:10:17;7.80;;;3.57;;
15645;SDS011;7922;43.622;1.476;2022-11-02T18:12:43;7.50;;;3.57;;
15645;SDS011;7922;43.622;1.476;2022-11-02T18:15:19;6.77;;;4.03;;
15645;SDS011;7922;43.622;1.476;2022-11-02T18:17:46;5.77;;;3.20;;
15645;SDS011;7922;43.622;1.476;2022-11-02T18:20:11;5.80;;;4.00;;
15645;SDS011;7922;43.622;1.476;2022-11-02T18:22:38;5.30;;;3.40;;
15645;SDS011;7922;43.622;1.476;2022-11-02T18:25:07;7.50;;;3.37;;
15645;SDS011;7922;43.622;1.476;2022-11-02T18:27:37;6.97;;;3.63;;
15645;SDS011;7922;43.622;1.476;2022-11-02T18:30:03;5.43;;;3.67;;
15645;SDS011;7922;43.622;1.476;2022-11-02T18:32:30;5.73;;;3.63;;